sensor_id;sensor_type;location;lat;lon;timestamp;temperature;humidity
19385;DHT22;9828;54.122;17.974;2023-08-20T00:04:31;22.80;1.00
19385;DHT22;9828;54.122;17.974;2023-08-20T00:09:56;22.80;99.90
19385;DHT22;9828;54.122;17.974;2023-08-20T00:15:17;22.80;1.00
19385;DHT22;9828;54.122;17.974;2023-08-20T00:20:40;22.80;99.90
19385;DHT22;9828;54.122;17.974;2023-08-20T00:26:02;22.70;1.00
19385;DHT22;9828;54.122;17.974;2023-08-20T00:31:23;22.70;1.00
19385;DHT22;9828;54.122;17.974;2023-08-20T00:36:45;22.70;1.00
19385;DHT22;9828;54.122;17.974;2023-08-20T00:42:07;22.70;1.00
19385;DHT22;9828;54.122;17.974;2023-08-20T00:47:28;22.60;1.00
19385;DHT22;9828;54.122;17.974;2023-08-20T00:52:50;22.50;1.00
19385;DHT22;9828;54.122;17.974;2023-08-20T00:58:11;22.50;1.00
19385;DHT22;9828;54.122;17.974;2023-08-20T01:03:33;22.40;1.00
19385;DHT22;9828;54.122;17.974;2023-08-20T01:09:01;22.30;1.00
19385;DHT22;9828;54.122;17.974;2023-08-20T01:14:24;22.30;99.90
19385;DHT22;9828;54.122;17.974;2023-08-20T01:25:30;22.20;99.90
19385;DHT22;9828;54.122;17.974;2023-08-20T01:30:56;22.10;1.00
19385;DHT22;9828;54.122;17.974;2023-08-20T01:36:18;22.00;99.90
19385;DHT22;9828;54.122;17.974;2023-08-20T01:41:39;21.90;99.90
19385;DHT22;9828;54.122;17.974;2023-08-20T01:47:01;22.00;99.90
19385;DHT22;9828;54.122;17.974;2023-08-20T01:52:23;21.90;99.90
19385;DHT22;9828;54.122;17.974;2023-08-20T01:57:44;21.90;1.00
19385;DHT22;9828;54.122;17.974;2023-08-20T02:03:06;21.90;1.00
19385;DHT22;9828;54.122;17.974;2023-08-20T02:08:27;21.90;1.00
19385;DHT22;9828;54.122;17.974;2023-08-20T02:19:11;21.70;99.90
19385;DHT22;9828;54.122;17.974;2023-08-20T02:24:32;21.70;1.00
19385;DHT22;9828;54.122;17.974;2023-08-20T02:29:53;21.60;1.00
19385;DHT22;9828;54.122;17.974;2023-08-20T02:35:15;21.60;1.00
19385;DHT22;9828;54.122;17.974;2023-08-20T02:40:41;21.60;1.00
19385;DHT22;9828;54.122;17.974;2023-08-20T02:46:03;21.50;99.90
19385;DHT22;9828;54.122;17.974;2023-08-20T02:51:25;21.50;99.90
19385;DHT22;9828;54.122;17.974;2023-08-20T02:56:46;21.40;1.00
19385;DHT22;9828;54.122;17.974;2023-08-20T03:02:08;21.40;1.00
19385;DHT22;9828;54.122;17.974;2023-08-20T03:07:29;21.50;99.90
19385;DHT22;9828;54.122;17.974;2023-08-20T03:12:51;21.40;1.00
19385;DHT22;9828;54.122;17.974;2023-08-20T03:18:12;21.40;1.00
19385;DHT22;9828;54.122;17.974;2023-08-20T03:23:33;21.30;1.00
19385;DHT22;9828;54.122;17.974;2023-08-20T03:28:54;21.30;1.00
19385;DHT22;9828;54.122;17.974;2023-08-20T03:34:16;21.30;18.20
19385;DHT22;9828;54.122;17.974;2023-08-20T03:39:37;21.30;1.00
19385;DHT22;9828;54.122;17.974;2023-08-20T03:44:59;21.30;1.00
19385;DHT22;9828;54.122;17.974;2023-08-20T03:50:20;21.30;1.00
19385;DHT22;9828;54.122;17.974;2023-08-20T03:55:41;21.30;1.00
19385;DHT22;9828;54.122;17.974;2023-08-20T04:01:08;21.30;1.00
19385;DHT22;9828;54.122;17.974;2023-08-20T04:06:30;21.30;1.00
19385;DHT22;9828;54.122;17.974;2023-08-20T04:11:51;21.30;1.00
19385;DHT22;9828;54.122;17.974;2023-08-20T04:17:12;21.30;1.00
19385;DHT22;9828;54.122;17.974;2023-08-20T04:22:34;21.30;1.00
19385;DHT22;9828;54.122;17.974;2023-08-20T04:27:55;21.30;1.00
19385;DHT22;9828;54.122;17.974;2023-08-20T04:33:17;21.40;1.00
19385;DHT22;9828;54.122;17.974;2023-08-20T04:38:39;21.40;99.90
19385;DHT22;9828;54.122;17.974;2023-08-20T04:44:01;21.60;1.00
19385;DHT22;9828;54.122;17.974;2023-08-20T04:49:22;21.60;95.00
19385;DHT22;9828;54.122;17.974;2023-08-20T04:54:44;21.70;99.90
19385;DHT22;9828;54.122;17.974;2023-08-20T05:00:07;21.80;99.90
19385;DHT22;9828;54.122;17.974;2023-08-20T05:05:37;22.00;99.90
19385;DHT22;9828;54.122;17.974;2023-08-20T05:10:59;22.20;1.00
19385;DHT22;9828;54.122;17.974;2023-08-20T05:16:20;22.40;99.90
19385;DHT22;9828;54.122;17.974;2023-08-20T05:21:41;22.50;1.00
19385;DHT22;9828;54.122;17.974;2023-08-20T05:27:15;22.60;99.90
19385;DHT22;9828;54.122;17.974;2023-08-20T05:32:41;22.80;99.90
19385;DHT22;9828;54.122;17.974;2023-08-20T05:38:02;22.90;99.90
19385;DHT22;9828;54.122;17.974;2023-08-20T05:43:23;23.00;99.90
19385;DHT22;9828;54.122;17.974;2023-08-20T05:48:44;23.30;1.00
19385;DHT22;9828;54.122;17.974;2023-08-20T05:54:06;23.50;99.90
19385;DHT22;9828;54.122;17.974;2023-08-20T05:59:29;23.70;1.00
19385;DHT22;9828;54.122;17.974;2023-08-20T06:04:50;23.90;99.90
19385;DHT22;9828;54.122;17.974;2023-08-20T06:10:12;24.00;1.00
19385;DHT22;9828;54.122;17.974;2023-08-20T06:15:34;24.10;1.00
19385;DHT22;9828;54.122;17.974;2023-08-20T06:20:55;24.30;1.00
19385;DHT22;9828;54.122;17.974;2023-08-20T06:26:17;24.60;1.00
19385;DHT22;9828;54.122;17.974;2023-08-20T06:31:38;25.00;99.90
19385;DHT22;9828;54.122;17.974;2023-08-20T06:36:59;25.80;99.90
19385;DHT22;9828;54.122;17.974;2023-08-20T06:42:20;26.50;1.00
19385;DHT22;9828;54.122;17.974;2023-08-20T06:47:42;27.00;1.00
19385;DHT22;9828;54.122;17.974;2023-08-20T06:53:03;27.60;99.90
19385;DHT22;9828;54.122;17.974;2023-08-20T06:58:26;28.10;1.00
19385;DHT22;9828;54.122;17.974;2023-08-20T07:03:47;28.20;99.90
19385;DHT22;9828;54.122;17.974;2023-08-20T07:09:09;29.00;99.90
19385;DHT22;9828;54.122;17.974;2023-08-20T07:14:30;29.20;1.00
19385;DHT22;9828;54.122;17.974;2023-08-20T07:19:51;29.10;1.00
19385;DHT22;9828;54.122;17.974;2023-08-20T07:25:13;29.10;1.00
19385;DHT22;9828;54.122;17.974;2023-08-20T07:30:35;29.50;1.00
19385;DHT22;9828;54.122;17.974;2023-08-20T07:35:56;29.70;1.00
19385;DHT22;9828;54.122;17.974;2023-08-20T07:41:18;29.70;1.00
19385;DHT22;9828;54.122;17.974;2023-08-20T07:46:41;29.80;1.00
19385;DHT22;9828;54.122;17.974;2023-08-20T07:52:02;29.90;1.00
19385;DHT22;9828;54.122;17.974;2023-08-20T07:57:23;30.10;1.00
19385;DHT22;9828;54.122;17.974;2023-08-20T08:02:45;30.20;1.00
19385;DHT22;9828;54.122;17.974;2023-08-20T08:08:06;30.50;1.00
19385;DHT22;9828;54.122;17.974;2023-08-20T08:13:27;31.20;1.00
19385;DHT22;9828;54.122;17.974;2023-08-20T08:18:49;32.30;1.00
19385;DHT22;9828;54.122;17.974;2023-08-20T08:24:11;33.30;1.00
19385;DHT22;9828;54.122;17.974;2023-08-20T08:29:32;33.10;1.00
19385;DHT22;9828;54.122;17.974;2023-08-20T08:34:53;32.60;1.00
19385;DHT22;9828;54.122;17.974;2023-08-20T08:40:15;32.10;1.00
19385;DHT22;9828;54.122;17.974;2023-08-20T08:45:36;32.20;1.00
19385;DHT22;9828;54.122;17.974;2023-08-20T08:50:58;32.10;1.00
19385;DHT22;9828;54.122;17.974;2023-08-20T08:56:20;31.50;1.00
19385;DHT22;9828;54.122;17.974;2023-08-20T09:01:42;31.20;1.00
19385;DHT22;9828;54.122;17.974;2023-08-20T09:07:03;30.80;1.00
19385;DHT22;9828;54.122;17.974;2023-08-20T09:12:25;30.50;1.00
19385;DHT22;9828;54.122;17.974;2023-08-20T09:17:46;30.30;1.00
19385;DHT22;9828;54.122;17.974;2023-08-20T09:23:12;30.20;1.00
19385;DHT22;9828;54.122;17.974;2023-08-20T09:28:44;30.10;1.00
19385;DHT22;9828;54.122;17.974;2023-08-20T09:34:06;30.30;1.00
19385;DHT22;9828;54.122;17.974;2023-08-20T09:39:33;31.00;1.00
19385;DHT22;9828;54.122;17.974;2023-08-20T09:44:55;32.20;1.00
19385;DHT22;9828;54.122;17.974;2023-08-20T09:50:18;32.00;1.00
19385;DHT22;9828;54.122;17.974;2023-08-20T09:55:41;32.40;1.00
19385;DHT22;9828;54.122;17.974;2023-08-20T10:01:03;33.20;1.00
19385;DHT22;9828;54.122;17.974;2023-08-20T10:06:25;34.20;1.00
19385;DHT22;9828;54.122;17.974;2023-08-20T10:11:47;34.10;1.00
19385;DHT22;9828;54.122;17.974;2023-08-20T10:17:09;33.90;1.00
19385;DHT22;9828;54.122;17.974;2023-08-20T10:28:13;34.50;1.00
19385;DHT22;9828;54.122;17.974;2023-08-20T10:33:48;34.60;1.00
19385;DHT22;9828;54.122;17.974;2023-08-20T10:39:20;35.20;1.00
19385;DHT22;9828;54.122;17.974;2023-08-20T10:50:20;36.00;1.00
19385;DHT22;9828;54.122;17.974;2023-08-20T11:01:20;36.60;1.00
19385;DHT22;9828;54.122;17.974;2023-08-20T11:22:47;37.40;1.00
19385;DHT22;9828;54.122;17.974;2023-08-20T11:28:08;36.70;1.00
19385;DHT22;9828;54.122;17.974;2023-08-20T11:33:29;35.90;1.00
19385;DHT22;9828;54.122;17.974;2023-08-20T11:38:54;35.40;39.50
19385;DHT22;9828;54.122;17.974;2023-08-20T11:44:20;35.90;1.00
19385;DHT22;9828;54.122;17.974;2023-08-20T11:49:43;36.30;1.00
19385;DHT22;9828;54.122;17.974;2023-08-20T11:55:04;35.30;1.00
19385;DHT22;9828;54.122;17.974;2023-08-20T12:00:29;34.40;99.90
19385;DHT22;9828;54.122;17.974;2023-08-20T12:05:51;34.90;99.90
19385;DHT22;9828;54.122;17.974;2023-08-20T12:11:13;35.40;99.90
19385;DHT22;9828;54.122;17.974;2023-08-20T12:16:34;35.40;99.90
19385;DHT22;9828;54.122;17.974;2023-08-20T12:21:55;35.60;99.90
19385;DHT22;9828;54.122;17.974;2023-08-20T12:27:16;35.90;99.90
19385;DHT22;9828;54.122;17.974;2023-08-20T12:32:37;35.90;99.90
19385;DHT22;9828;54.122;17.974;2023-08-20T12:37:59;35.90;99.90
19385;DHT22;9828;54.122;17.974;2023-08-20T12:43:20;35.50;99.90
19385;DHT22;9828;54.122;17.974;2023-08-20T12:48:41;35.10;99.90
19385;DHT22;9828;54.122;17.974;2023-08-20T12:54:03;34.90;99.90
19385;DHT22;9828;54.122;17.974;2023-08-20T12:59:25;35.00;99.90
19385;DHT22;9828;54.122;17.974;2023-08-20T13:04:47;34.70;99.90
19385;DHT22;9828;54.122;17.974;2023-08-20T13:10:09;34.20;1.00
19385;DHT22;9828;54.122;17.974;2023-08-20T13:15:31;34.30;1.00
19385;DHT22;9828;54.122;17.974;2023-08-20T13:20:53;34.20;1.00
19385;DHT22;9828;54.122;17.974;2023-08-20T13:26:15;33.60;1.00
19385;DHT22;9828;54.122;17.974;2023-08-20T13:31:36;33.20;99.90
19385;DHT22;9828;54.122;17.974;2023-08-20T13:36:58;33.40;1.00
19385;DHT22;9828;54.122;17.974;2023-08-20T13:42:19;33.30;99.90
19385;DHT22;9828;54.122;17.974;2023-08-20T13:47:42;33.30;99.90
19385;DHT22;9828;54.122;17.974;2023-08-20T13:53:07;33.30;1.00
19385;DHT22;9828;54.122;17.974;2023-08-20T13:58:29;33.30;1.00
19385;DHT22;9828;54.122;17.974;2023-08-20T14:03:50;33.30;1.00
19385;DHT22;9828;54.122;17.974;2023-08-20T14:09:12;33.30;1.00
19385;DHT22;9828;54.122;17.974;2023-08-20T14:19:55;32.20;99.90
19385;DHT22;9828;54.122;17.974;2023-08-20T14:30:38;31.60;1.00
19385;DHT22;9828;54.122;17.974;2023-08-20T14:36:00;31.50;1.00
19385;DHT22;9828;54.122;17.974;2023-08-20T14:41:21;31.30;1.00
19385;DHT22;9828;54.122;17.974;2023-08-20T14:46:42;31.50;1.00
19385;DHT22;9828;54.122;17.974;2023-08-20T14:52:04;31.40;1.00
19385;DHT22;9828;54.122;17.974;2023-08-20T14:57:29;31.20;99.90
19385;DHT22;9828;54.122;17.974;2023-08-20T15:02:54;30.90;1.00
19385;DHT22;9828;54.122;17.974;2023-08-20T15:08:15;30.80;99.90
19385;DHT22;9828;54.122;17.974;2023-08-20T15:13:37;30.40;1.00
19385;DHT22;9828;54.122;17.974;2023-08-20T15:18:58;30.40;1.00
19385;DHT22;9828;54.122;17.974;2023-08-20T15:24:19;30.20;99.90
19385;DHT22;9828;54.122;17.974;2023-08-20T15:35:02;29.70;1.00
19385;DHT22;9828;54.122;17.974;2023-08-20T15:40:26;29.80;1.00
19385;DHT22;9828;54.122;17.974;2023-08-20T15:45:48;29.30;1.00
19385;DHT22;9828;54.122;17.974;2023-08-20T15:51:10;29.20;1.00
19385;DHT22;9828;54.122;17.974;2023-08-20T15:56:31;29.00;1.00
19385;DHT22;9828;54.122;17.974;2023-08-20T16:01:52;28.90;1.00
19385;DHT22;9828;54.122;17.974;2023-08-20T16:07:13;28.70;1.00
19385;DHT22;9828;54.122;17.974;2023-08-20T16:12:35;28.50;1.00
19385;DHT22;9828;54.122;17.974;2023-08-20T16:17:56;28.40;1.00
19385;DHT22;9828;54.122;17.974;2023-08-20T16:23:18;28.20;1.00
19385;DHT22;9828;54.122;17.974;2023-08-20T16:28:41;28.20;99.90
19385;DHT22;9828;54.122;17.974;2023-08-20T16:34:03;28.10;1.00
19385;DHT22;9828;54.122;17.974;2023-08-20T16:39:24;27.90;1.00
19385;DHT22;9828;54.122;17.974;2023-08-20T16:55:30;27.30;1.00
19385;DHT22;9828;54.122;17.974;2023-08-20T17:00:51;27.10;1.00
19385;DHT22;9828;54.122;17.974;2023-08-20T17:06:15;26.90;1.00
19385;DHT22;9828;54.122;17.974;2023-08-20T17:11:36;26.70;1.00
19385;DHT22;9828;54.122;17.974;2023-08-20T17:16:57;26.60;1.00
19385;DHT22;9828;54.122;17.974;2023-08-20T17:22:19;26.50;1.00
19385;DHT22;9828;54.122;17.974;2023-08-20T17:27:40;26.20;1.00
19385;DHT22;9828;54.122;17.974;2023-08-20T17:33:01;26.10;1.00
19385;DHT22;9828;54.122;17.974;2023-08-20T17:38:23;26.00;30.10
19385;DHT22;9828;54.122;17.974;2023-08-20T17:43:45;25.90;45.00
19385;DHT22;9828;54.122;17.974;2023-08-20T17:49:06;25.70;87.80
19385;DHT22;9828;54.122;17.974;2023-08-20T17:54:27;25.60;99.90
19385;DHT22;9828;54.122;17.974;2023-08-20T17:59:48;25.40;99.90
19385;DHT22;9828;54.122;17.974;2023-08-20T18:05:10;25.30;99.90
19385;DHT22;9828;54.122;17.974;2023-08-20T18:15:55;25.20;99.90
19385;DHT22;9828;54.122;17.974;2023-08-20T18:21:16;25.20;99.90
19385;DHT22;9828;54.122;17.974;2023-08-20T18:26:37;25.00;1.00
19385;DHT22;9828;54.122;17.974;2023-08-20T18:31:58;24.90;1.00
19385;DHT22;9828;54.122;17.974;2023-08-20T18:37:20;24.80;1.00
19385;DHT22;9828;54.122;17.974;2023-08-20T18:42:41;24.80;1.00
19385;DHT22;9828;54.122;17.974;2023-08-20T18:48:03;24.70;1.00
19385;DHT22;9828;54.122;17.974;2023-08-20T18:53:25;24.60;1.00
19385;DHT22;9828;54.122;17.974;2023-08-20T19:09:29;24.20;99.90
19385;DHT22;9828;54.122;17.974;2023-08-20T19:14:50;24.20;99.90
19385;DHT22;9828;54.122;17.974;2023-08-20T19:20:12;24.20;96.50
19385;DHT22;9828;54.122;17.974;2023-08-20T19:25:34;24.10;99.90
19385;DHT22;9828;54.122;17.974;2023-08-20T19:30:55;24.00;99.90
19385;DHT22;9828;54.122;17.974;2023-08-20T19:36:16;23.90;99.90
19385;DHT22;9828;54.122;17.974;2023-08-20T19:41:38;23.80;99.90
19385;DHT22;9828;54.122;17.974;2023-08-20T19:46:59;23.60;1.00
19385;DHT22;9828;54.122;17.974;2023-08-20T19:52:21;23.70;99.90
19385;DHT22;9828;54.122;17.974;2023-08-20T19:57:42;23.60;99.90
19385;DHT22;9828;54.122;17.974;2023-08-20T20:03:05;23.60;99.90
19385;DHT22;9828;54.122;17.974;2023-08-20T20:08:26;23.60;99.90
19385;DHT22;9828;54.122;17.974;2023-08-20T20:13:47;23.70;99.90
19385;DHT22;9828;54.122;17.974;2023-08-20T20:19:09;23.70;83.70
19385;DHT22;9828;54.122;17.974;2023-08-20T20:24:31;23.80;77.00
19385;DHT22;9828;54.122;17.974;2023-08-20T20:29:52;23.80;10.10
19385;DHT22;9828;54.122;17.974;2023-08-20T20:35:13;23.60;99.90
19385;DHT22;9828;54.122;17.974;2023-08-20T20:40:35;23.60;1.00
19385;DHT22;9828;54.122;17.974;2023-08-20T20:45:57;23.50;1.00
19385;DHT22;9828;54.122;17.974;2023-08-20T20:51:18;23.30;99.90
19385;DHT22;9828;54.122;17.974;2023-08-20T20:56:40;23.10;99.90
19385;DHT22;9828;54.122;17.974;2023-08-20T21:02:01;23.00;99.90
19385;DHT22;9828;54.122;17.974;2023-08-20T21:07:22;22.90;1.00
19385;DHT22;9828;54.122;17.974;2023-08-20T21:12:44;22.80;1.00
19385;DHT22;9828;54.122;17.974;2023-08-20T21:18:05;22.70;1.00
19385;DHT22;9828;54.122;17.974;2023-08-20T21:23:26;22.70;1.00
19385;DHT22;9828;54.122;17.974;2023-08-20T21:28:48;22.60;1.00
19385;DHT22;9828;54.122;17.974;2023-08-20T21:34:09;22.50;1.00
19385;DHT22;9828;54.122;17.974;2023-08-20T21:39:30;22.50;1.00
19385;DHT22;9828;54.122;17.974;2023-08-20T21:44:52;22.60;1.00
19385;DHT22;9828;54.122;17.974;2023-08-20T21:50:15;22.40;1.00
19385;DHT22;9828;54.122;17.974;2023-08-20T21:55:37;22.40;1.00
19385;DHT22;9828;54.122;17.974;2023-08-20T22:00:58;22.40;1.00
19385;DHT22;9828;54.122;17.974;2023-08-20T22:06:24;22.30;25.20
19385;DHT22;9828;54.122;17.974;2023-08-20T22:11:46;22.20;1.00
19385;DHT22;9828;54.122;17.974;2023-08-20T22:17:07;22.80;1.00
19385;DHT22;9828;54.122;17.974;2023-08-20T22:22:29;22.10;1.00
19385;DHT22;9828;54.122;17.974;2023-08-20T22:27:50;22.20;1.00
19385;DHT22;9828;54.122;17.974;2023-08-20T22:33:11;22.10;1.00
19385;DHT22;9828;54.122;17.974;2023-08-20T22:38:34;22.10;1.00
19385;DHT22;9828;54.122;17.974;2023-08-20T22:43:55;22.10;99.90
19385;DHT22;9828;54.122;17.974;2023-08-20T22:49:16;22.10;1.00
19385;DHT22;9828;54.122;17.974;2023-08-20T22:54:37;22.10;1.00
19385;DHT22;9828;54.122;17.974;2023-08-20T23:00:00;21.90;1.00
19385;DHT22;9828;54.122;17.974;2023-08-20T23:05:22;21.80;99.90
19385;DHT22;9828;54.122;17.974;2023-08-20T23:10:43;21.80;99.90
19385;DHT22;9828;54.122;17.974;2023-08-20T23:16:05;21.70;1.00
19385;DHT22;9828;54.122;17.974;2023-08-20T23:21:26;21.60;99.90
19385;DHT22;9828;54.122;17.974;2023-08-20T23:32:09;21.50;1.00
19385;DHT22;9828;54.122;17.974;2023-08-20T23:42:55;21.20;1.00
19385;DHT22;9828;54.122;17.974;2023-08-20T23:48:16;21.30;1.00
19385;DHT22;9828;54.122;17.974;2023-08-20T23:53:38;21.30;1.00
